createdAt,value
2018-07-10T00:02:40.176Z,59.45
2018-07-10T00:05:50.585Z,59.34
2018-07-10T00:08:45.507Z,58.32
2018-07-10T00:11:25.963Z,59.14
2018-07-10T00:13:55.364Z,57.97
2018-07-10T00:16:24.661Z,58.25
2018-07-10T00:18:54.668Z,59.13
2018-07-10T00:21:23.611Z,58.00
2018-07-10T00:23:52.746Z,58.69
2018-07-10T00:26:21.897Z,58.29
2018-07-10T00:28:51.036Z,57.72
2018-07-10T00:31:20.184Z,57.51
2018-07-10T00:33:49.329Z,56.92
2018-07-10T00:36:18.508Z,57.85
2018-07-10T00:39:01.372Z,57.48
2018-07-10T00:41:33.418Z,58.32
2018-07-10T00:44:03.235Z,58.21
2018-07-10T00:46:35.411Z,57.77
2018-07-10T00:49:04.594Z,58.03
2018-07-10T00:51:37.112Z,58.59
2018-07-10T00:54:06.275Z,58.29
2018-07-10T00:56:35.419Z,57.74
2018-07-10T00:59:06.651Z,57.58
2018-07-10T01:01:36.224Z,57.92
2018-07-10T01:04:05.150Z,58.39
2018-07-10T01:06:34.292Z,58.20
2018-07-10T01:09:03.501Z,58.55
2018-07-10T01:11:32.430Z,58.12
2018-07-10T01:14:01.570Z,58.72
2018-07-10T01:16:38.277Z,59.12
2018-07-10T01:19:12.941Z,59.32
2018-07-10T01:21:43.080Z,58.71
2018-07-10T01:24:12.224Z,58.99
2018-07-10T01:26:42.328Z,59.16
2018-07-10T01:29:16.827Z,59.20
2018-07-10T01:31:46.881Z,59.21
2018-07-10T01:34:16.268Z,59.15
2018-07-10T01:36:45.431Z,59.15
2018-07-10T01:39:14.770Z,59.64
2018-07-10T01:41:44.137Z,59.78
2018-07-10T01:44:13.292Z,59.44
2018-07-10T01:46:42.735Z,59.42
2018-07-10T01:49:11.890Z,59.70
2018-07-10T01:51:41.032Z,60.27
2018-07-10T01:54:10.188Z,60.64
2018-07-10T01:56:39.384Z,60.73
2018-07-10T01:59:08.517Z,61.25
2018-07-10T02:01:37.668Z,61.28
2018-07-10T02:04:07.979Z,61.48
2018-07-10T02:06:37.135Z,62.01
2018-07-10T02:09:06.440Z,62.31
2018-07-10T02:11:35.580Z,62.94
2018-07-10T02:14:04.960Z,63.16
2018-07-10T02:16:34.045Z,63.44
2018-07-10T02:19:03.211Z,62.93
2018-07-10T02:21:32.355Z,62.98
2018-07-10T02:24:01.284Z,63.01
2018-07-10T02:26:30.424Z,63.19
2018-07-10T02:28:59.560Z,62.72
2018-07-10T02:31:28.752Z,63.14
2018-07-10T02:33:57.896Z,63.74
2018-07-10T02:36:27.060Z,63.70
2018-07-10T02:38:59.513Z,63.72
2018-07-10T02:41:28.654Z,63.83
2018-07-10T02:44:05.539Z,64.15
2018-07-10T02:46:36.620Z,63.66
2018-07-10T02:49:14.888Z,63.47
2018-07-10T02:51:58.154Z,63.73
2018-07-10T02:54:31.274Z,63.98
2018-07-10T02:57:00.437Z,64.31
2018-07-10T02:59:36.596Z,63.85
2018-07-10T03:02:07.468Z,64.19
2018-07-10T03:04:40.141Z,64.59
2018-07-10T03:07:12.485Z,64.99
2018-07-10T03:09:41.619Z,65.55
2018-07-10T03:12:11.423Z,65.12
2018-07-10T03:14:40.917Z,65.31
2018-07-10T03:17:10.545Z,65.14
2018-07-10T03:19:39.727Z,65.16
2018-07-10T03:22:08.878Z,65.43
2018-07-10T03:24:38.008Z,65.51
2018-07-10T03:27:07.164Z,65.65
2018-07-10T03:29:36.304Z,65.64
2018-07-10T03:32:05.448Z,65.84
2018-07-10T03:34:34.604Z,65.96
2018-07-10T03:37:03.757Z,66.09
2018-07-10T03:39:32.896Z,66.39
2018-07-10T03:42:02.033Z,65.88
2018-07-10T03:44:31.184Z,65.77
2018-07-10T03:47:00.320Z,66.04
2018-07-10T03:49:29.792Z,66.87
2018-07-10T03:51:59.072Z,66.42
2018-07-10T03:54:28.220Z,67.21
2018-07-10T03:56:57.384Z,67.85
2018-07-10T03:59:26.524Z,67.53
2018-07-10T04:01:56.027Z,67.46
2018-07-10T04:04:25.256Z,67.61
2018-07-10T04:06:54.628Z,67.61
2018-07-10T04:09:23.843Z,67.48
2018-07-10T04:11:53.080Z,67.90
2018-07-10T04:14:24.259Z,68.34
2018-07-10T04:16:53.955Z,68.20
2018-07-10T04:19:23.940Z,67.31
2018-07-10T04:21:55.399Z,67.24
2018-07-10T04:24:24.820Z,67.49
2018-07-10T04:27:31.099Z,68.32
2018-07-10T04:31:17.252Z,67.83
2018-07-10T04:33:49.089Z,68.20
2018-07-10T04:36:19.232Z,68.15
2018-07-10T04:38:55.148Z,68.42
2018-07-10T04:41:28.694Z,68.20
2018-07-10T04:44:07.897Z,69.16
2018-07-10T04:46:43.308Z,68.25
2018-07-10T04:49:56.044Z,69.46
2018-07-10T04:52:29.124Z,69.43
2018-07-10T04:55:15.929Z,70.32
2018-07-10T04:57:56.361Z,70.39
2018-07-10T05:00:27.432Z,69.70
2018-07-10T05:02:57.699Z,69.64
2018-07-10T05:05:28.771Z,69.42
2018-07-10T05:07:57.903Z,69.71
2018-07-10T05:10:27.557Z,68.93
2018-07-10T05:12:57.054Z,69.69
2018-07-10T05:15:26.189Z,69.27
2018-07-10T05:17:56.981Z,69.10
2018-07-10T05:20:26.820Z,69.00
2018-07-10T05:22:55.977Z,68.71
2018-07-10T05:25:25.121Z,69.09
2018-07-10T05:27:54.281Z,68.54
2018-07-10T05:30:23.415Z,68.78
2018-07-10T05:32:52.552Z,68.76
2018-07-10T05:35:21.712Z,68.09
2018-07-10T05:37:51.148Z,66.72
2018-07-10T05:40:26.647Z,66.96
2018-07-10T05:42:55.833Z,68.61
2018-07-10T05:45:26.139Z,65.95
2018-07-10T05:48:01.177Z,66.50
2018-07-10T05:50:36.013Z,66.31
2018-07-10T05:53:09.477Z,65.72
2018-07-10T05:55:45.516Z,65.71
2018-07-10T05:58:14.727Z,66.02
2018-07-10T06:00:44.023Z,65.49
2018-07-10T06:03:13.229Z,66.02
2018-07-10T06:05:42.389Z,66.67
2018-07-10T06:08:13.873Z,67.89
2018-07-10T06:10:43.334Z,68.87
2018-07-10T06:13:12.486Z,69.67
2018-07-10T06:15:41.624Z,69.19
2018-07-10T06:18:10.777Z,68.80
2018-07-10T06:20:42.033Z,68.80
2018-07-10T06:23:11.656Z,69.02
2018-07-10T06:25:41.093Z,69.13
2018-07-10T06:28:15.840Z,69.21
2018-07-10T06:30:44.985Z,69.43
2018-07-10T06:33:27.403Z,69.86
2018-07-10T06:36:21.577Z,70.52
2018-07-10T06:39:06.388Z,70.05
2018-07-10T06:41:39.128Z,69.38
2018-07-10T06:44:08.289Z,69.92
2018-07-10T06:46:42.928Z,69.06
2018-07-10T06:49:47.493Z,68.29
2018-07-10T06:52:19.207Z,68.44
2018-07-10T06:55:11.455Z,67.82
2018-07-10T06:57:51.919Z,68.79
2018-07-10T07:00:20.845Z,68.76
2018-07-10T07:02:50.076Z,68.54
2018-07-10T07:05:19.230Z,69.00
2018-07-10T07:07:48.376Z,68.96
2018-07-10T07:10:18.005Z,68.48
2018-07-10T07:12:47.516Z,66.07
2018-07-10T07:15:20.003Z,66.67
2018-07-10T07:17:51.642Z,64.70
2018-07-10T07:20:22.268Z,63.75
2018-07-10T07:22:51.805Z,63.00
2018-07-10T07:25:20.944Z,61.68
2018-07-10T07:27:50.161Z,60.36
2018-07-10T07:30:19.319Z,59.93
2018-07-10T07:32:49.266Z,60.62
2018-07-10T07:35:18.432Z,60.65
2018-07-10T07:37:47.765Z,61.27
2018-07-10T07:40:16.932Z,61.05
2018-07-10T07:42:46.103Z,60.39
2018-07-10T07:45:15.249Z,60.08
2018-07-10T07:47:44.795Z,61.03
2018-07-10T07:50:13.960Z,61.16
2018-07-10T07:52:43.200Z,60.69
2018-07-10T07:55:13.379Z,61.70
2018-07-10T07:57:42.540Z,61.52
2018-07-10T08:00:11.700Z,61.71
2018-07-10T08:02:41.107Z,61.29
2018-07-10T08:05:10.292Z,60.67
2018-07-10T08:07:39.454Z,61.84
2018-07-10T08:10:08.595Z,61.38
2018-07-10T08:12:37.752Z,61.10
2018-07-10T08:15:06.888Z,59.95
2018-07-10T08:17:37.149Z,60.22
2018-07-10T08:20:07.302Z,60.72
2018-07-10T08:22:36.537Z,60.51
2018-07-10T08:25:06.528Z,60.03
2018-07-10T08:27:37.079Z,58.72
2018-07-10T08:30:06.694Z,58.00
2018-07-10T08:32:37.724Z,57.75
2018-07-10T08:35:07.016Z,57.41
2018-07-10T08:37:36.203Z,57.87
2018-07-10T08:40:05.367Z,57.39
2018-07-10T08:42:34.534Z,57.41
2018-07-10T08:45:05.004Z,57.10
2018-07-10T08:47:35.046Z,57.30
2018-07-10T08:50:04.209Z,56.94
2018-07-10T08:52:33.391Z,57.18
2018-07-10T08:55:02.528Z,55.93
2018-07-10T08:57:31.693Z,55.77
2018-07-10T09:00:01.059Z,56.18
2018-07-10T09:02:30.229Z,55.51
2018-07-10T09:04:59.397Z,55.00
2018-07-10T09:07:28.550Z,54.61
2018-07-10T09:09:57.717Z,55.15
2018-07-10T09:15:18.531Z,55.05
2018-07-10T09:17:47.487Z,55.64
2018-07-10T09:20:27.815Z,55.94
2018-07-10T09:22:57.001Z,56.54
2018-07-10T09:25:26.236Z,56.20
2018-07-10T09:30:53.351Z,55.67
2018-07-10T09:33:22.817Z,55.16
2018-07-10T09:35:52.674Z,53.95
2018-07-10T09:38:22.166Z,54.19
2018-07-10T09:40:51.653Z,54.03
2018-07-10T09:43:21.671Z,53.65
2018-07-10T09:45:51.565Z,54.51
2018-07-10T10:29:39.473Z,51.45
2018-07-10T10:32:08.652Z,52.67
2018-07-10T10:34:37.829Z,51.49
2018-07-10T10:37:07.446Z,52.03
2018-07-10T10:39:36.628Z,51.58
2018-07-10T10:42:06.071Z,54.01
2018-07-10T10:44:35.237Z,51.78
2018-07-10T10:47:04.427Z,51.93
2018-07-10T10:49:33.596Z,52.42
2018-07-10T10:52:02.780Z,51.71
2018-07-10T10:54:31.962Z,50.17
2018-07-10T10:57:01.139Z,49.93
2018-07-10T10:59:30.314Z,49.49
2018-07-10T11:01:59.496Z,49.73
2018-07-10T11:04:28.648Z,48.38
2018-07-10T11:06:57.798Z,49.58
2018-07-10T11:09:27.140Z,50.47
2018-07-10T11:11:57.300Z,50.71
2018-07-10T11:14:26.430Z,50.64
2018-07-10T11:16:55.592Z,50.90
2018-07-10T11:19:28.115Z,51.27
2018-07-10T11:22:05.304Z,51.24
2018-07-10T11:25:09.648Z,52.94
2018-07-10T11:28:15.018Z,52.41
2018-07-10T11:30:43.979Z,51.18
2018-07-10T11:33:13.120Z,50.11
2018-07-10T11:35:42.266Z,49.79
2018-07-10T11:38:13.366Z,49.21
2018-07-10T11:40:44.295Z,48.78
2018-07-10T11:43:13.720Z,46.64
2018-07-10T11:45:42.871Z,46.25
2018-07-10T11:48:11.976Z,46.60
2018-07-10T11:50:41.125Z,47.10
2018-07-10T11:53:10.292Z,48.14
2018-07-10T11:55:39.434Z,48.72
2018-07-10T11:58:08.984Z,48.60
2018-07-10T12:00:38.316Z,47.90
2018-07-10T12:03:07.991Z,47.15
2018-07-10T12:05:39.122Z,47.91
2018-07-10T12:08:08.303Z,47.03
2018-07-10T12:10:38.635Z,47.17
2018-07-10T12:13:08.048Z,47.46
2018-07-10T12:15:36.963Z,47.02
2018-07-10T12:18:06.098Z,47.51
2018-07-10T12:20:42.454Z,46.92
2018-07-10T12:23:12.716Z,47.80
2018-07-10T12:25:43.562Z,47.43
2018-07-10T12:28:13.512Z,46.09
2018-07-10T12:30:42.932Z,40.93
2018-07-10T12:33:12.068Z,40.70
2018-07-10T12:35:41.352Z,39.86
2018-07-10T12:38:10.930Z,40.63
2018-07-10T12:40:40.083Z,42.28
2018-07-10T12:43:09.014Z,40.22
2018-07-10T12:45:38.173Z,41.50
2018-07-10T12:48:07.314Z,43.32
2018-07-10T12:50:36.469Z,41.88
2018-07-10T12:53:05.600Z,40.83
2018-07-10T12:55:36.398Z,40.71
2018-07-10T12:58:05.668Z,39.76
2018-07-10T13:00:37.776Z,40.69
2018-07-10T13:03:09.609Z,37.69
2018-07-10T13:05:45.281Z,36.83
2018-07-10T13:08:14.442Z,39.65
2018-07-10T13:10:43.715Z,43.84
2018-07-10T13:13:12.895Z,44.43
2018-07-10T13:15:42.119Z,44.35
2018-07-10T13:18:11.310Z,45.36
2018-07-10T13:20:40.566Z,45.61
2018-07-10T13:23:09.948Z,45.25
2018-07-10T13:25:39.117Z,46.45
2018-07-10T13:28:08.293Z,45.09
2018-07-10T13:30:37.468Z,45.24
2018-07-10T13:33:06.637Z,45.81
2018-07-10T13:35:36.355Z,40.49
2018-07-10T13:38:05.891Z,38.19
2018-07-10T13:40:37.020Z,39.24
2018-07-10T13:43:06.260Z,36.38
2018-07-10T13:45:35.437Z,36.11
2018-07-10T13:48:04.621Z,35.98
2018-07-10T13:50:34.698Z,36.18
2018-07-10T13:53:04.731Z,37.94
2018-07-10T13:55:33.963Z,37.01
2018-07-10T13:58:23.925Z,37.30
2018-07-10T14:00:59.137Z,38.46
2018-07-10T14:03:28.323Z,39.11
2018-07-10T14:05:57.467Z,35.07
2018-07-10T14:08:26.645Z,36.53
2018-07-10T14:10:55.811Z,39.00
2018-07-10T14:13:24.966Z,37.57
2018-07-10T14:15:54.099Z,39.41
2018-07-10T14:18:24.668Z,41.50
2018-07-10T14:20:57.043Z,41.10
2018-07-10T14:23:26.195Z,41.55
2018-07-10T14:25:55.665Z,40.71
2018-07-10T14:28:24.928Z,41.16
2018-07-10T14:30:53.958Z,42.23
2018-07-10T14:33:23.532Z,41.51
2018-07-10T14:35:52.458Z,39.86
2018-07-10T14:38:25.232Z,41.54
2018-07-10T14:40:54.802Z,40.34
2018-07-10T14:43:26.307Z,40.32
2018-07-10T14:46:00.390Z,40.62
2018-07-10T14:48:33.680Z,40.00
2018-07-10T14:51:03.272Z,39.56
2018-07-10T14:53:32.402Z,39.29
2018-07-10T14:56:01.563Z,39.42
2018-07-10T14:58:30.706Z,40.06
2018-07-10T15:00:59.866Z,40.29
2018-07-10T15:03:29.010Z,38.14
2018-07-10T15:05:58.181Z,38.66
2018-07-10T15:08:27.393Z,39.22
2018-07-10T15:10:56.573Z,39.87
2018-07-10T15:13:25.737Z,39.91
2018-07-10T15:16:02.299Z,41.23
2018-07-10T15:18:37.029Z,41.47
2018-07-10T15:21:06.052Z,42.66
2018-07-10T15:23:35.251Z,42.58
2018-07-10T15:26:04.392Z,43.03
2018-07-10T15:28:33.673Z,43.16
2018-07-10T15:31:02.843Z,43.12
2018-07-10T15:33:32.003Z,42.88
2018-07-10T15:36:01.188Z,43.10
2018-07-10T15:38:30.368Z,44.08
2018-07-10T15:40:59.860Z,44.15
2018-07-10T15:43:29.032Z,43.57
2018-07-10T15:45:58.259Z,43.13
2018-07-10T15:48:27.431Z,44.27
2018-07-10T15:50:56.693Z,43.17
2018-07-10T15:53:25.868Z,42.22
2018-07-10T15:55:55.048Z,41.30
2018-07-10T15:58:24.244Z,36.87
2018-07-10T16:00:53.423Z,36.04
2018-07-10T16:03:22.821Z,40.24
2018-07-10T16:05:52.329Z,40.40
2018-07-10T16:08:21.703Z,41.60
2018-07-10T16:10:57.277Z,43.07
2018-07-10T16:13:28.099Z,43.13
2018-07-10T16:15:58.993Z,43.30
2018-07-10T16:18:29.967Z,42.61
2018-07-10T16:21:02.933Z,43.86
2018-07-10T16:23:33.079Z,43.62
2018-07-10T16:26:12.818Z,42.62
2018-07-10T16:28:43.172Z,42.72
2018-07-10T16:31:18.403Z,43.04
2018-07-10T16:33:47.560Z,42.82
2018-07-10T16:36:17.824Z,43.50
2018-07-10T16:38:47.015Z,44.14
2018-07-10T16:41:23.127Z,43.70
2018-07-10T16:43:53.573Z,44.06
2018-07-10T16:46:25.270Z,43.44
2018-07-10T16:49:07.380Z,43.35
2018-07-10T16:51:49.035Z,43.05
2018-07-10T16:54:18.742Z,43.16
2018-07-10T16:56:47.919Z,43.51
2018-07-10T16:59:17.095Z,43.67
2018-07-10T17:01:46.270Z,40.85
2018-07-10T17:04:15.691Z,42.25
2018-07-10T17:06:45.416Z,43.27
2018-07-10T17:09:14.565Z,43.16
2018-07-10T17:11:43.702Z,37.99
2018-07-10T17:14:12.864Z,40.63
2018-07-10T17:16:42.007Z,43.80
2018-07-10T17:19:11.163Z,43.69
2018-07-10T17:21:40.341Z,45.28
2018-07-10T17:24:09.480Z,46.19
2018-07-10T17:26:39.018Z,47.00
2018-07-10T17:29:10.880Z,47.92
2018-07-10T17:31:39.887Z,48.12
2018-07-10T17:34:09.120Z,49.10
2018-07-10T17:36:38.260Z,49.03
2018-07-10T17:39:07.412Z,48.83
2018-07-10T17:41:37.393Z,49.28
2018-07-10T17:44:10.270Z,49.90
2018-07-10T17:46:39.936Z,49.77
2018-07-10T17:49:09.100Z,50.53
2018-07-10T17:51:38.230Z,49.49
2018-07-10T17:54:07.385Z,49.75
2018-07-10T17:56:36.546Z,49.25
2018-07-10T17:59:07.491Z,46.21
2018-07-10T18:01:37.168Z,45.90
2018-07-10T18:04:06.735Z,43.79
2018-07-10T18:06:36.428Z,41.32
2018-07-10T18:09:06.361Z,40.91
2018-07-10T18:11:35.532Z,40.03
2018-07-10T18:14:04.480Z,42.27
2018-07-10T18:16:35.776Z,45.75
2018-07-10T18:19:05.531Z,45.67
2018-07-10T18:21:35.917Z,46.51
2018-07-10T18:24:05.118Z,47.46
2018-07-10T18:26:34.279Z,47.91
2018-07-10T18:29:03.598Z,49.12
2018-07-10T18:31:32.809Z,48.58
2018-07-10T18:34:01.724Z,49.40
2018-07-10T18:36:30.897Z,49.35
2018-07-10T18:39:00.076Z,49.11
2018-07-10T18:41:29.237Z,50.21
2018-07-10T18:43:58.383Z,49.84
2018-07-10T18:46:27.528Z,50.26
2018-07-10T18:48:56.677Z,50.68
2018-07-10T18:51:25.973Z,50.92
2018-07-10T18:53:54.928Z,51.14
2018-07-10T18:56:24.185Z,50.96
2018-07-10T18:59:03.974Z,51.72
2018-07-10T19:02:07.569Z,50.82
2018-07-10T19:04:51.376Z,51.41
2018-07-10T19:07:20.742Z,52.01
2018-07-10T19:09:49.973Z,52.44
2018-07-10T19:12:19.174Z,52.87
2018-07-10T19:14:48.358Z,52.80
2018-07-10T19:17:24.116Z,53.25
2018-07-10T19:19:55.165Z,53.48
2018-07-10T19:22:28.607Z,53.76
2018-07-10T19:25:00.230Z,53.85
2018-07-10T19:27:32.047Z,54.49
2018-07-10T19:30:06.038Z,54.74
2018-07-10T19:32:35.424Z,55.36
2018-07-10T19:35:04.583Z,55.71
2018-07-10T19:37:37.160Z,56.20
2018-07-10T19:40:06.644Z,57.35
2018-07-10T19:42:38.317Z,56.64
2018-07-10T19:45:07.525Z,57.22
2018-07-10T19:47:36.688Z,57.55
2018-07-10T19:50:16.164Z,57.93
2018-07-10T19:52:52.345Z,57.96
2018-07-10T19:55:24.337Z,57.98
2018-07-10T19:58:31.132Z,58.45
2018-07-10T20:01:37.770Z,59.34
2018-07-10T20:04:11.363Z,59.68
2018-07-10T20:07:08.067Z,59.66
2018-07-10T20:09:51.891Z,59.93
2018-07-10T20:12:28.994Z,60.30
2018-07-10T20:15:11.424Z,60.51
2018-07-10T20:17:50.740Z,60.27
2018-07-10T20:20:24.375Z,61.35
2018-07-10T20:23:08.164Z,61.52
2018-07-10T20:26:00.235Z,61.64
2018-07-10T20:29:37.068Z,61.37
2018-07-10T20:32:07.887Z,61.37
2018-07-10T20:35:17.264Z,61.66
2018-07-10T20:37:48.793Z,61.97
2018-07-10T20:40:32.472Z,61.77
2018-07-10T20:43:12.091Z,62.51
2018-07-10T20:45:57.008Z,63.10
2018-07-10T20:48:59.923Z,63.05
2018-07-10T20:51:38.911Z,62.85
2018-07-10T20:54:20.463Z,62.58
2018-07-10T20:57:25.474Z,62.51
2018-07-10T21:00:03.427Z,62.44
2018-07-10T21:04:55.339Z,61.46
2018-07-10T21:07:29.038Z,60.70
2018-07-10T21:10:04.720Z,60.94
2018-07-10T21:12:52.273Z,61.33
2018-07-10T21:15:34.991Z,61.49
2018-07-10T21:18:23.184Z,60.78
2018-07-10T21:21:21.954Z,61.18
2018-07-10T21:23:57.854Z,60.18
2018-07-10T21:27:43.936Z,60.98
2018-07-10T21:30:27.231Z,61.08
2018-07-10T21:33:00.468Z,61.40
2018-07-10T21:35:40.021Z,61.61
2018-07-10T21:38:18.118Z,61.86
2018-07-10T21:40:59.414Z,62.05
2018-07-10T21:43:50.790Z,62.36
2018-07-10T21:46:38.806Z,62.39
2018-07-10T21:49:38.160Z,62.60
2018-07-10T21:52:07.343Z,62.31
2018-07-10T21:54:36.511Z,62.76
2018-07-10T21:57:05.733Z,62.47
2018-07-10T21:59:38.520Z,62.56
2018-07-10T22:02:10.303Z,62.15
2018-07-10T22:04:40.155Z,62.70
2018-07-10T22:07:12.779Z,62.21
2018-07-10T22:09:42.555Z,62.14
2018-07-10T22:12:15.256Z,61.95
2018-07-10T22:14:45.348Z,62.12
2018-07-10T22:17:17.883Z,62.58
2018-07-10T22:19:49.179Z,62.42
2018-07-10T22:22:18.984Z,64.03
2018-07-10T22:24:49.927Z,64.06
2018-07-10T22:27:19.412Z,64.07
2018-07-10T22:29:53.985Z,63.79
2018-07-10T22:32:30.998Z,63.84
2018-07-10T22:35:00.159Z,64.82
2018-07-10T22:37:29.334Z,65.36
2018-07-10T22:39:58.494Z,67.57
2018-07-10T22:42:27.683Z,68.67
2018-07-10T22:44:58.753Z,68.43
2018-07-10T22:47:31.378Z,65.90
2018-07-10T22:50:07.687Z,65.38
2018-07-10T22:52:44.885Z,65.19
2018-07-10T22:55:17.543Z,66.23
2018-07-10T22:57:47.280Z,66.30
2018-07-10T23:00:23.529Z,69.31
2018-07-10T23:02:52.695Z,71.30
2018-07-10T23:05:21.831Z,74.85
2018-07-10T23:07:50.736Z,77.10
2018-07-10T23:10:19.870Z,78.06
2018-07-10T23:12:49.631Z,79.04
2018-07-10T23:15:18.559Z,81.05
2018-07-10T23:17:47.684Z,82.96
2018-07-10T23:20:17.028Z,83.10
2018-07-10T23:22:56.648Z,84.73
2018-07-10T23:25:26.594Z,86.11
2018-07-10T23:28:01.284Z,86.51
2018-07-10T23:30:33.982Z,88.18
2018-07-10T23:33:02.902Z,88.15
2018-07-10T23:35:33.821Z,89.24
2018-07-10T23:38:19.337Z,89.75
2018-07-10T23:40:48.900Z,90.07
2018-07-10T23:43:19.007Z,90.69
2018-07-10T23:45:48.591Z,90.36
2018-07-10T23:48:17.681Z,91.89
2018-07-10T23:50:46.898Z,92.80
2018-07-10T23:53:55.744Z,92.72
2018-07-10T23:56:24.884Z,92.89
2018-07-10T23:58:54.011Z,93.27
